sensor_id;sensor_type;location;lat;lon;timestamp;P1;durP1;ratioP1;P2;durP2;ratioP2
35602;SDS011;21725;50.836;4.368;2022-10-16T00:01:32;2.20;;;1.40;;
35602;SDS011;21725;50.836;4.368;2022-10-16T00:03:59;7.47;;;1.88;;
35602;SDS011;21725;50.836;4.368;2022-10-16T00:06:26;4.03;;;1.90;;
35602;SDS011;21725;50.836;4.368;2022-10-16T00:08:52;2.17;;;1.27;;
35602;SDS011;21725;50.836;4.368;2022-10-16T00:11:19;2.60;;;1.63;;
35602;SDS011;21725;50.836;4.368;2022-10-16T00:13:47;2.53;;;1.70;;
35602;SDS011;21725;50.836;4.368;2022-10-16T00:16:14;3.88;;;2.15;;
35602;SDS011;21725;50.836;4.368;2022-10-16T00:18:41;7.03;;;1.65;;
35602;SDS011;21725;50.836;4.368;2022-10-16T00:23:38;2.97;;;1.50;;
35602;SDS011;21725;50.836;4.368;2022-10-16T00:26:06;2.22;;;1.55;;
35602;SDS011;21725;50.836;4.368;2022-10-16T00:28:34;1.77;;;1.30;;
35602;SDS011;21725;50.836;4.368;2022-10-16T00:31:04;6.15;;;1.65;;
35602;SDS011;21725;50.836;4.368;2022-10-16T00:33:32;2.72;;;1.77;;
35602;SDS011;21725;50.836;4.368;2022-10-16T00:35:59;4.15;;;2.17;;
35602;SDS011;21725;50.836;4.368;2022-10-16T00:38:25;3.13;;;1.80;;
35602;SDS011;21725;50.836;4.368;2022-10-16T00:40:51;7.85;;;2.20;;
35602;SDS011;21725;50.836;4.368;2022-10-16T00:43:34;2.50;;;1.52;;
35602;SDS011;21725;50.836;4.368;2022-10-16T00:46:00;2.60;;;1.70;;
35602;SDS011;21725;50.836;4.368;2022-10-16T00:48:28;3.15;;;1.70;;
35602;SDS011;21725;50.836;4.368;2022-10-16T00:50:56;3.95;;;2.00;;
35602;SDS011;21725;50.836;4.368;2022-10-16T00:53:23;2.63;;;1.58;;
35602;SDS011;21725;50.836;4.368;2022-10-16T00:55:50;3.05;;;1.70;;
35602;SDS011;21725;50.836;4.368;2022-10-16T00:58:16;3.95;;;1.88;;
35602;SDS011;21725;50.836;4.368;2022-10-16T01:00:42;3.60;;;1.60;;
35602;SDS011;21725;50.836;4.368;2022-10-16T01:03:27;2.03;;;1.48;;
35602;SDS011;21725;50.836;4.368;2022-10-16T01:11:39;4.97;;;1.98;;
35602;SDS011;21725;50.836;4.368;2022-10-16T01:14:21;5.97;;;1.98;;
35602;SDS011;21725;50.836;4.368;2022-10-16T01:16:54;4.22;;;1.67;;
35602;SDS011;21725;50.836;4.368;2022-10-16T01:25:44;3.10;;;1.92;;
35602;SDS011;21725;50.836;4.368;2022-10-16T01:28:21;4.65;;;2.08;;
35602;SDS011;21725;50.836;4.368;2022-10-16T01:30:52;4.55;;;1.45;;
35602;SDS011;21725;50.836;4.368;2022-10-16T01:33:24;10.90;;;2.78;;
35602;SDS011;21725;50.836;4.368;2022-10-16T01:36:06;4.28;;;2.35;;
35602;SDS011;21725;50.836;4.368;2022-10-16T01:38:37;5.38;;;2.00;;
35602;SDS011;21725;50.836;4.368;2022-10-16T01:41:26;4.05;;;2.72;;
35602;SDS011;21725;50.836;4.368;2022-10-16T01:44:06;2.13;;;1.65;;
35602;SDS011;21725;50.836;4.368;2022-10-16T01:46:36;5.88;;;1.95;;
35602;SDS011;21725;50.836;4.368;2022-10-16T01:49:03;3.08;;;1.80;;
35602;SDS011;21725;50.836;4.368;2022-10-16T01:51:31;2.97;;;1.67;;
35602;SDS011;21725;50.836;4.368;2022-10-16T01:54:00;3.90;;;1.58;;
35602;SDS011;21725;50.836;4.368;2022-10-16T01:56:27;3.22;;;2.00;;
35602;SDS011;21725;50.836;4.368;2022-10-16T01:58:58;4.93;;;2.20;;
35602;SDS011;21725;50.836;4.368;2022-10-16T02:01:29;2.95;;;2.03;;
35602;SDS011;21725;50.836;4.368;2022-10-16T02:03:59;3.50;;;1.45;;
35602;SDS011;21725;50.836;4.368;2022-10-16T02:06:32;3.05;;;1.70;;
35602;SDS011;21725;50.836;4.368;2022-10-16T02:08:58;5.55;;;1.65;;
35602;SDS011;21725;50.836;4.368;2022-10-16T02:11:24;4.90;;;2.10;;
35602;SDS011;21725;50.836;4.368;2022-10-16T02:14:08;4.22;;;1.98;;
35602;SDS011;21725;50.836;4.368;2022-10-16T02:16:36;3.40;;;1.75;;
35602;SDS011;21725;50.836;4.368;2022-10-16T02:19:04;3.58;;;1.95;;
35602;SDS011;21725;50.836;4.368;2022-10-16T02:21:43;2.95;;;1.80;;
35602;SDS011;21725;50.836;4.368;2022-10-16T02:27:37;3.30;;;1.80;;
35602;SDS011;21725;50.836;4.368;2022-10-16T02:29:45;4.05;;;1.85;;
35602;SDS011;21725;50.836;4.368;2022-10-16T02:32:19;3.03;;;1.90;;
35602;SDS011;21725;50.836;4.368;2022-10-16T02:34:48;6.10;;;2.15;;
35602;SDS011;21725;50.836;4.368;2022-10-16T02:37:15;4.25;;;1.88;;
35602;SDS011;21725;50.836;4.368;2022-10-16T02:39:43;6.78;;;2.20;;
35602;SDS011;21725;50.836;4.368;2022-10-16T02:42:12;4.43;;;2.05;;
35602;SDS011;21725;50.836;4.368;2022-10-16T02:44:38;4.40;;;2.00;;
35602;SDS011;21725;50.836;4.368;2022-10-16T02:47:04;3.22;;;1.85;;
35602;SDS011;21725;50.836;4.368;2022-10-16T02:49:30;9.57;;;3.35;;
35602;SDS011;21725;50.836;4.368;2022-10-16T02:51:56;5.97;;;2.20;;
35602;SDS011;21725;50.836;4.368;2022-10-16T02:54:22;6.13;;;2.03;;
35602;SDS011;21725;50.836;4.368;2022-10-16T02:56:48;4.65;;;2.20;;
35602;SDS011;21725;50.836;4.368;2022-10-16T02:59:14;6.85;;;2.63;;
35602;SDS011;21725;50.836;4.368;2022-10-16T03:01:40;4.40;;;1.92;;
35602;SDS011;21725;50.836;4.368;2022-10-16T03:04:07;7.10;;;2.55;;
35602;SDS011;21725;50.836;4.368;2022-10-16T03:06:32;4.63;;;2.33;;
35602;SDS011;21725;50.836;4.368;2022-10-16T03:08:59;4.95;;;2.03;;
35602;SDS011;21725;50.836;4.368;2022-10-16T03:11:25;3.92;;;2.25;;
35602;SDS011;21725;50.836;4.368;2022-10-16T03:13:51;2.80;;;1.75;;
35602;SDS011;21725;50.836;4.368;2022-10-16T03:16:17;8.05;;;2.20;;
35602;SDS011;21725;50.836;4.368;2022-10-16T03:18:42;4.85;;;1.90;;
35602;SDS011;21725;50.836;4.368;2022-10-16T03:21:08;4.45;;;2.22;;
35602;SDS011;21725;50.836;4.368;2022-10-16T03:23:34;5.40;;;2.30;;
35602;SDS011;21725;50.836;4.368;2022-10-16T03:26:00;4.55;;;2.00;;
35602;SDS011;21725;50.836;4.368;2022-10-16T03:28:26;7.20;;;2.05;;
35602;SDS011;21725;50.836;4.368;2022-10-16T03:30:52;3.70;;;2.25;;
35602;SDS011;21725;50.836;4.368;2022-10-16T03:33:17;4.20;;;2.58;;
35602;SDS011;21725;50.836;4.368;2022-10-16T03:35:50;4.50;;;2.03;;
35602;SDS011;21725;50.836;4.368;2022-10-16T03:38:16;8.05;;;2.30;;
35602;SDS011;21725;50.836;4.368;2022-10-16T03:40:42;5.18;;;1.90;;
35602;SDS011;21725;50.836;4.368;2022-10-16T03:43:08;4.35;;;2.13;;
35602;SDS011;21725;50.836;4.368;2022-10-16T03:45:34;11.73;;;2.40;;
35602;SDS011;21725;50.836;4.368;2022-10-16T03:48:00;3.60;;;2.00;;
35602;SDS011;21725;50.836;4.368;2022-10-16T03:50:27;3.90;;;2.38;;
35602;SDS011;21725;50.836;4.368;2022-10-16T03:52:53;3.40;;;2.05;;
35602;SDS011;21725;50.836;4.368;2022-10-16T03:55:19;4.47;;;2.65;;
35602;SDS011;21725;50.836;4.368;2022-10-16T03:57:45;5.10;;;2.30;;
35602;SDS011;21725;50.836;4.368;2022-10-16T04:00:11;5.47;;;2.13;;
35602;SDS011;21725;50.836;4.368;2022-10-16T04:02:38;8.25;;;3.42;;
35602;SDS011;21725;50.836;4.368;2022-10-16T04:05:04;7.57;;;2.83;;
35602;SDS011;21725;50.836;4.368;2022-10-16T04:07:30;7.95;;;2.30;;
35602;SDS011;21725;50.836;4.368;2022-10-16T04:09:56;4.07;;;2.28;;
35602;SDS011;21725;50.836;4.368;2022-10-16T04:12:24;5.05;;;2.83;;
35602;SDS011;21725;50.836;4.368;2022-10-16T04:14:50;6.22;;;2.20;;
35602;SDS011;21725;50.836;4.368;2022-10-16T04:17:16;3.78;;;2.00;;
35602;SDS011;21725;50.836;4.368;2022-10-16T04:19:41;7.30;;;2.30;;
35602;SDS011;21725;50.836;4.368;2022-10-16T04:22:07;4.43;;;2.20;;
35602;SDS011;21725;50.836;4.368;2022-10-16T04:24:33;9.07;;;2.10;;
35602;SDS011;21725;50.836;4.368;2022-10-16T04:26:59;5.18;;;2.63;;
35602;SDS011;21725;50.836;4.368;2022-10-16T04:29:25;3.70;;;2.10;;
35602;SDS011;21725;50.836;4.368;2022-10-16T04:31:51;7.50;;;1.95;;
35602;SDS011;21725;50.836;4.368;2022-10-16T04:34:17;4.93;;;2.42;;
35602;SDS011;21725;50.836;4.368;2022-10-16T04:36:42;6.60;;;2.60;;
35602;SDS011;21725;50.836;4.368;2022-10-16T04:39:08;7.75;;;2.65;;
35602;SDS011;21725;50.836;4.368;2022-10-16T04:41:34;3.35;;;2.03;;
35602;SDS011;21725;50.836;4.368;2022-10-16T04:44:00;5.45;;;2.13;;
35602;SDS011;21725;50.836;4.368;2022-10-16T04:46:26;4.90;;;2.10;;
35602;SDS011;21725;50.836;4.368;2022-10-16T04:48:51;4.60;;;1.98;;
35602;SDS011;21725;50.836;4.368;2022-10-16T04:51:17;3.65;;;2.15;;
35602;SDS011;21725;50.836;4.368;2022-10-16T04:53:43;3.45;;;1.98;;
35602;SDS011;21725;50.836;4.368;2022-10-16T04:56:09;4.03;;;2.03;;
35602;SDS011;21725;50.836;4.368;2022-10-16T04:58:35;6.38;;;2.20;;
35602;SDS011;21725;50.836;4.368;2022-10-16T05:01:01;7.22;;;2.67;;
35602;SDS011;21725;50.836;4.368;2022-10-16T05:03:29;4.40;;;1.70;;
35602;SDS011;21725;50.836;4.368;2022-10-16T05:05:55;5.03;;;2.60;;
35602;SDS011;21725;50.836;4.368;2022-10-16T05:08:21;4.10;;;1.70;;
35602;SDS011;21725;50.836;4.368;2022-10-16T05:10:47;5.07;;;2.88;;
35602;SDS011;21725;50.836;4.368;2022-10-16T05:13:13;6.35;;;2.20;;
35602;SDS011;21725;50.836;4.368;2022-10-16T05:15:39;3.65;;;2.05;;
35602;SDS011;21725;50.836;4.368;2022-10-16T05:18:05;5.47;;;3.13;;
35602;SDS011;21725;50.836;4.368;2022-10-16T05:20:31;5.40;;;2.38;;
35602;SDS011;21725;50.836;4.368;2022-10-16T05:22:57;4.88;;;2.30;;
35602;SDS011;21725;50.836;4.368;2022-10-16T05:25:23;4.18;;;2.22;;
35602;SDS011;21725;50.836;4.368;2022-10-16T05:27:49;5.03;;;2.60;;
35602;SDS011;21725;50.836;4.368;2022-10-16T05:30:16;6.53;;;2.40;;
35602;SDS011;21725;50.836;4.368;2022-10-16T05:32:45;5.05;;;2.40;;
35602;SDS011;21725;50.836;4.368;2022-10-16T05:35:12;7.07;;;2.30;;
35602;SDS011;21725;50.836;4.368;2022-10-16T05:37:38;4.63;;;2.65;;
35602;SDS011;21725;50.836;4.368;2022-10-16T05:40:04;4.72;;;2.70;;
35602;SDS011;21725;50.836;4.368;2022-10-16T05:42:30;4.70;;;2.58;;
35602;SDS011;21725;50.836;4.368;2022-10-16T05:44:56;4.43;;;2.42;;
35602;SDS011;21725;50.836;4.368;2022-10-16T05:47:22;4.38;;;2.42;;
35602;SDS011;21725;50.836;4.368;2022-10-16T05:49:48;5.22;;;3.13;;
35602;SDS011;21725;50.836;4.368;2022-10-16T05:52:15;3.30;;;2.22;;
35602;SDS011;21725;50.836;4.368;2022-10-16T05:54:40;6.03;;;2.80;;
35602;SDS011;21725;50.836;4.368;2022-10-16T05:57:06;6.30;;;2.83;;
35602;SDS011;21725;50.836;4.368;2022-10-16T05:59:32;7.70;;;2.40;;
35602;SDS011;21725;50.836;4.368;2022-10-16T06:01:58;4.30;;;2.45;;
35602;SDS011;21725;50.836;4.368;2022-10-16T06:04:24;16.20;;;2.22;;
35602;SDS011;21725;50.836;4.368;2022-10-16T06:06:50;6.00;;;2.53;;
35602;SDS011;21725;50.836;4.368;2022-10-16T06:09:16;5.38;;;3.03;;
35602;SDS011;21725;50.836;4.368;2022-10-16T06:11:41;6.28;;;3.10;;
35602;SDS011;21725;50.836;4.368;2022-10-16T06:14:07;8.48;;;3.78;;
35602;SDS011;21725;50.836;4.368;2022-10-16T06:16:34;8.43;;;2.45;;
35602;SDS011;21725;50.836;4.368;2022-10-16T06:19:01;6.68;;;2.60;;
35602;SDS011;21725;50.836;4.368;2022-10-16T06:23:57;4.25;;;2.20;;
35602;SDS011;21725;50.836;4.368;2022-10-16T06:26:25;5.05;;;2.83;;
35602;SDS011;21725;50.836;4.368;2022-10-16T06:28:56;3.53;;;2.53;;
35602;SDS011;21725;50.836;4.368;2022-10-16T06:31:24;7.43;;;2.65;;
35602;SDS011;21725;50.836;4.368;2022-10-16T06:33:53;7.70;;;2.97;;
35602;SDS011;21725;50.836;4.368;2022-10-16T06:36:19;5.95;;;2.30;;
35602;SDS011;21725;50.836;4.368;2022-10-16T06:38:45;4.53;;;2.63;;
35602;SDS011;21725;50.836;4.368;2022-10-16T06:41:12;6.50;;;2.50;;
35602;SDS011;21725;50.836;4.368;2022-10-16T06:43:39;8.20;;;3.00;;
35602;SDS011;21725;50.836;4.368;2022-10-16T06:46:06;7.38;;;2.65;;
35602;SDS011;21725;50.836;4.368;2022-10-16T06:48:34;7.47;;;2.80;;
35602;SDS011;21725;50.836;4.368;2022-10-16T06:51:11;5.53;;;2.63;;
35602;SDS011;21725;50.836;4.368;2022-10-16T06:53:39;4.07;;;1.83;;
35602;SDS011;21725;50.836;4.368;2022-10-16T06:58:33;4.68;;;2.38;;
35602;SDS011;21725;50.836;4.368;2022-10-16T07:00:59;8.38;;;3.47;;
35602;SDS011;21725;50.836;4.368;2022-10-16T07:03:25;13.40;;;2.70;;
35602;SDS011;21725;50.836;4.368;2022-10-16T07:05:51;13.80;;;3.60;;
35602;SDS011;21725;50.836;4.368;2022-10-16T07:08:18;8.60;;;3.08;;
35602;SDS011;21725;50.836;4.368;2022-10-16T07:10:43;5.63;;;2.47;;
35602;SDS011;21725;50.836;4.368;2022-10-16T07:13:10;4.43;;;2.45;;
35602;SDS011;21725;50.836;4.368;2022-10-16T07:15:38;9.93;;;2.67;;
35602;SDS011;21725;50.836;4.368;2022-10-16T07:18:04;7.32;;;2.55;;
35602;SDS011;21725;50.836;4.368;2022-10-16T07:20:30;6.85;;;2.58;;
35602;SDS011;21725;50.836;4.368;2022-10-16T07:22:58;7.07;;;2.72;;
35602;SDS011;21725;50.836;4.368;2022-10-16T07:25:24;4.90;;;2.50;;
35602;SDS011;21725;50.836;4.368;2022-10-16T07:27:50;6.22;;;2.53;;
35602;SDS011;21725;50.836;4.368;2022-10-16T07:30:16;10.02;;;2.85;;
35602;SDS011;21725;50.836;4.368;2022-10-16T07:32:42;4.72;;;2.22;;
35602;SDS011;21725;50.836;4.368;2022-10-16T07:35:09;6.78;;;2.80;;
35602;SDS011;21725;50.836;4.368;2022-10-16T07:37:38;3.90;;;2.47;;
35602;SDS011;21725;50.836;4.368;2022-10-16T07:40:04;8.27;;;3.50;;
35602;SDS011;21725;50.836;4.368;2022-10-16T07:42:33;5.00;;;2.50;;
35602;SDS011;21725;50.836;4.368;2022-10-16T07:44:59;6.03;;;2.70;;
35602;SDS011;21725;50.836;4.368;2022-10-16T07:47:25;6.38;;;2.75;;
35602;SDS011;21725;50.836;4.368;2022-10-16T07:49:51;3.55;;;2.03;;
35602;SDS011;21725;50.836;4.368;2022-10-16T07:52:17;10.43;;;4.13;;
35602;SDS011;21725;50.836;4.368;2022-10-16T07:54:42;6.25;;;2.72;;
35602;SDS011;21725;50.836;4.368;2022-10-16T07:57:08;6.78;;;2.53;;
35602;SDS011;21725;50.836;4.368;2022-10-16T07:59:34;7.00;;;2.88;;
35602;SDS011;21725;50.836;4.368;2022-10-16T08:02:00;5.47;;;2.67;;
35602;SDS011;21725;50.836;4.368;2022-10-16T08:04:26;6.43;;;3.03;;
35602;SDS011;21725;50.836;4.368;2022-10-16T08:06:52;5.18;;;2.05;;
35602;SDS011;21725;50.836;4.368;2022-10-16T08:09:19;7.22;;;3.42;;
35602;SDS011;21725;50.836;4.368;2022-10-16T08:11:45;8.15;;;2.33;;
35602;SDS011;21725;50.836;4.368;2022-10-16T08:14:10;5.47;;;2.63;;
35602;SDS011;21725;50.836;4.368;2022-10-16T08:16:36;7.22;;;2.80;;
35602;SDS011;21725;50.836;4.368;2022-10-16T08:19:02;9.82;;;3.60;;
35602;SDS011;21725;50.836;4.368;2022-10-16T08:21:28;5.55;;;3.05;;
35602;SDS011;21725;50.836;4.368;2022-10-16T08:23:53;6.15;;;2.60;;
35602;SDS011;21725;50.836;4.368;2022-10-16T08:26:20;5.60;;;2.78;;
35602;SDS011;21725;50.836;4.368;2022-10-16T08:28:45;7.75;;;2.55;;
35602;SDS011;21725;50.836;4.368;2022-10-16T08:31:14;4.93;;;2.30;;
35602;SDS011;21725;50.836;4.368;2022-10-16T08:33:41;7.13;;;2.42;;
35602;SDS011;21725;50.836;4.368;2022-10-16T08:36:10;4.90;;;2.47;;
35602;SDS011;21725;50.836;4.368;2022-10-16T08:38:36;7.15;;;2.33;;
35602;SDS011;21725;50.836;4.368;2022-10-16T08:46:39;4.53;;;2.28;;
35602;SDS011;21725;50.836;4.368;2022-10-16T08:49:22;5.00;;;2.22;;
35602;SDS011;21725;50.836;4.368;2022-10-16T08:51:49;9.52;;;2.60;;
35602;SDS011;21725;50.836;4.368;2022-10-16T08:54:21;10.85;;;3.40;;
35602;SDS011;21725;50.836;4.368;2022-10-16T08:56:56;10.02;;;2.95;;
35602;SDS011;21725;50.836;4.368;2022-10-16T08:59:26;4.57;;;2.08;;
35602;SDS011;21725;50.836;4.368;2022-10-16T09:01:52;4.97;;;2.72;;
35602;SDS011;21725;50.836;4.368;2022-10-16T09:04:29;8.13;;;2.47;;
35602;SDS011;21725;50.836;4.368;2022-10-16T09:13:23;5.38;;;2.70;;
35602;SDS011;21725;50.836;4.368;2022-10-16T09:18:57;6.45;;;1.83;;
35602;SDS011;21725;50.836;4.368;2022-10-16T09:21:29;10.38;;;2.50;;
35602;SDS011;21725;50.836;4.368;2022-10-16T09:24:00;6.25;;;2.53;;
35602;SDS011;21725;50.836;4.368;2022-10-16T09:26:38;7.00;;;2.53;;
35602;SDS011;21725;50.836;4.368;2022-10-16T09:29:04;8.98;;;2.80;;
35602;SDS011;21725;50.836;4.368;2022-10-16T09:31:30;7.22;;;2.85;;
35602;SDS011;21725;50.836;4.368;2022-10-16T09:33:59;8.70;;;2.60;;
35602;SDS011;21725;50.836;4.368;2022-10-16T09:36:31;10.27;;;2.80;;
35602;SDS011;21725;50.836;4.368;2022-10-16T09:39:05;4.40;;;2.10;;
35602;SDS011;21725;50.836;4.368;2022-10-16T09:41:36;6.10;;;2.72;;
35602;SDS011;21725;50.836;4.368;2022-10-16T09:44:04;10.10;;;4.05;;
35602;SDS011;21725;50.836;4.368;2022-10-16T09:46:43;4.80;;;1.90;;
35602;SDS011;21725;50.836;4.368;2022-10-16T09:49:19;4.63;;;1.73;;
35602;SDS011;21725;50.836;4.368;2022-10-16T09:51:48;7.50;;;1.85;;
35602;SDS011;21725;50.836;4.368;2022-10-16T09:54:19;11.13;;;2.42;;
35602;SDS011;21725;50.836;4.368;2022-10-16T09:56:45;10.30;;;3.58;;
35602;SDS011;21725;50.836;4.368;2022-10-16T09:59:17;5.40;;;1.90;;
35602;SDS011;21725;50.836;4.368;2022-10-16T10:01:49;10.03;;;2.33;;
35602;SDS011;21725;50.836;4.368;2022-10-16T10:04:16;6.78;;;2.58;;
35602;SDS011;21725;50.836;4.368;2022-10-16T10:12:14;6.28;;;2.00;;
35602;SDS011;21725;50.836;4.368;2022-10-16T10:15:04;6.40;;;2.35;;
35602;SDS011;21725;50.836;4.368;2022-10-16T10:17:58;4.80;;;2.08;;
35602;SDS011;21725;50.836;4.368;2022-10-16T10:20:37;7.70;;;1.75;;
35602;SDS011;21725;50.836;4.368;2022-10-16T10:23:22;5.82;;;2.10;;
35602;SDS011;21725;50.836;4.368;2022-10-16T10:28:54;4.90;;;2.03;;
35602;SDS011;21725;50.836;4.368;2022-10-16T10:43:32;5.93;;;3.10;;
35602;SDS011;21725;50.836;4.368;2022-10-16T10:46:18;7.20;;;2.40;;
35602;SDS011;21725;50.836;4.368;2022-10-16T10:51:49;6.63;;;2.45;;
35602;SDS011;21725;50.836;4.368;2022-10-16T10:54:41;5.10;;;2.22;;
35602;SDS011;21725;50.836;4.368;2022-10-16T10:57:38;4.30;;;2.25;;
35602;SDS011;21725;50.836;4.368;2022-10-16T11:00:42;3.28;;;1.80;;
35602;SDS011;21725;50.836;4.368;2022-10-16T11:08:53;4.82;;;2.33;;
35602;SDS011;21725;50.836;4.368;2022-10-16T11:11:51;5.03;;;2.15;;
35602;SDS011;21725;50.836;4.368;2022-10-16T11:17:33;5.53;;;1.88;;
35602;SDS011;21725;50.836;4.368;2022-10-16T11:25:22;4.88;;;2.10;;
35602;SDS011;21725;50.836;4.368;2022-10-16T11:27:57;4.25;;;1.85;;
35602;SDS011;21725;50.836;4.368;2022-10-16T11:30:59;5.15;;;2.03;;
35602;SDS011;21725;50.836;4.368;2022-10-16T11:33:33;4.65;;;1.88;;
35602;SDS011;21725;50.836;4.368;2022-10-16T11:36:31;3.50;;;1.70;;
35602;SDS011;21725;50.836;4.368;2022-10-16T11:55:36;7.55;;;2.00;;
35602;SDS011;21725;50.836;4.368;2022-10-16T11:58:08;4.82;;;2.75;;
35602;SDS011;21725;50.836;4.368;2022-10-16T12:08:42;4.90;;;1.60;;
35602;SDS011;21725;50.836;4.368;2022-10-16T12:19:26;4.85;;;2.15;;
35602;SDS011;21725;50.836;4.368;2022-10-16T12:22:01;9.15;;;2.90;;
35602;SDS011;21725;50.836;4.368;2022-10-16T12:24:33;6.45;;;2.13;;
35602;SDS011;21725;50.836;4.368;2022-10-16T12:27:20;6.13;;;3.10;;
35602;SDS011;21725;50.836;4.368;2022-10-16T12:29:57;3.20;;;1.60;;
35602;SDS011;21725;50.836;4.368;2022-10-16T12:35:03;4.13;;;1.90;;
35602;SDS011;21725;50.836;4.368;2022-10-16T12:38:03;4.88;;;1.60;;
35602;SDS011;21725;50.836;4.368;2022-10-16T12:40:35;5.82;;;2.00;;
35602;SDS011;21725;50.836;4.368;2022-10-16T12:43:40;3.47;;;1.48;;
35602;SDS011;21725;50.836;4.368;2022-10-16T12:48:34;3.08;;;1.70;;
35602;SDS011;21725;50.836;4.368;2022-10-16T12:54:02;3.53;;;1.67;;
35602;SDS011;21725;50.836;4.368;2022-10-16T13:08:28;3.78;;;1.48;;
35602;SDS011;21725;50.836;4.368;2022-10-16T13:17:06;4.70;;;2.50;;
35602;SDS011;21725;50.836;4.368;2022-10-16T13:19:46;5.22;;;2.38;;
35602;SDS011;21725;50.836;4.368;2022-10-16T13:25:39;9.48;;;2.88;;
35602;SDS011;21725;50.836;4.368;2022-10-16T13:28:28;4.10;;;1.80;;
35602;SDS011;21725;50.836;4.368;2022-10-16T13:31:01;4.75;;;1.80;;
35602;SDS011;21725;50.836;4.368;2022-10-16T13:36:24;8.48;;;2.67;;
35602;SDS011;21725;50.836;4.368;2022-10-16T13:41:43;5.03;;;1.85;;
35602;SDS011;21725;50.836;4.368;2022-10-16T13:44:13;5.97;;;1.60;;
35602;SDS011;21725;50.836;4.368;2022-10-16T13:46:57;9.13;;;2.80;;
35602;SDS011;21725;50.836;4.368;2022-10-16T13:49:24;9.25;;;2.53;;
35602;SDS011;21725;50.836;4.368;2022-10-16T13:51:54;3.72;;;1.75;;
35602;SDS011;21725;50.836;4.368;2022-10-16T13:54:20;7.25;;;1.85;;
35602;SDS011;21725;50.836;4.368;2022-10-16T13:56:47;5.05;;;2.10;;
35602;SDS011;21725;50.836;4.368;2022-10-16T13:59:26;10.10;;;4.32;;
35602;SDS011;21725;50.836;4.368;2022-10-16T14:02:05;7.32;;;2.55;;
35602;SDS011;21725;50.836;4.368;2022-10-16T14:04:45;6.30;;;2.10;;
35602;SDS011;21725;50.836;4.368;2022-10-16T14:07:23;3.30;;;1.65;;
35602;SDS011;21725;50.836;4.368;2022-10-16T14:10:00;8.95;;;3.65;;
35602;SDS011;21725;50.836;4.368;2022-10-16T14:12:29;5.25;;;1.98;;
35602;SDS011;21725;50.836;4.368;2022-10-16T14:15:01;7.50;;;2.65;;
35602;SDS011;21725;50.836;4.368;2022-10-16T14:17:35;9.85;;;2.95;;
35602;SDS011;21725;50.836;4.368;2022-10-16T14:20:03;5.28;;;1.95;;
35602;SDS011;21725;50.836;4.368;2022-10-16T14:25:24;4.55;;;1.90;;
35602;SDS011;21725;50.836;4.368;2022-10-16T14:30:55;3.63;;;1.60;;
35602;SDS011;21725;50.836;4.368;2022-10-16T14:38:33;5.82;;;2.67;;
35602;SDS011;21725;50.836;4.368;2022-10-16T14:40:59;6.35;;;2.35;;
35602;SDS011;21725;50.836;4.368;2022-10-16T14:43:29;12.15;;;3.00;;
35602;SDS011;21725;50.836;4.368;2022-10-16T14:46:04;3.63;;;1.90;;
35602;SDS011;21725;50.836;4.368;2022-10-16T14:48:54;4.97;;;2.47;;
35602;SDS011;21725;50.836;4.368;2022-10-16T14:51:32;6.30;;;1.98;;
35602;SDS011;21725;50.836;4.368;2022-10-16T14:54:01;8.02;;;3.00;;
35602;SDS011;21725;50.836;4.368;2022-10-16T14:56:51;4.53;;;2.33;;
35602;SDS011;21725;50.836;4.368;2022-10-16T14:59:32;6.47;;;3.00;;
35602;SDS011;21725;50.836;4.368;2022-10-16T15:02:05;4.93;;;2.20;;
35602;SDS011;21725;50.836;4.368;2022-10-16T15:05:04;7.85;;;3.08;;
35602;SDS011;21725;50.836;4.368;2022-10-16T15:07:39;5.07;;;2.22;;
35602;SDS011;21725;50.836;4.368;2022-10-16T15:10:14;4.88;;;2.00;;
35602;SDS011;21725;50.836;4.368;2022-10-16T15:12:44;7.72;;;2.50;;
35602;SDS011;21725;50.836;4.368;2022-10-16T15:15:55;5.60;;;1.90;;
35602;SDS011;21725;50.836;4.368;2022-10-16T15:18:05;4.28;;;2.10;;
35602;SDS011;21725;50.836;4.368;2022-10-16T15:20:34;3.70;;;1.85;;
35602;SDS011;21725;50.836;4.368;2022-10-16T15:23:06;6.70;;;2.15;;
35602;SDS011;21725;50.836;4.368;2022-10-16T15:28:16;8.15;;;2.90;;
35602;SDS011;21725;50.836;4.368;2022-10-16T15:30:46;6.35;;;3.08;;
35602;SDS011;21725;50.836;4.368;2022-10-16T15:33:26;9.93;;;3.20;;
35602;SDS011;21725;50.836;4.368;2022-10-16T15:36:04;10.40;;;2.50;;
35602;SDS011;21725;50.836;4.368;2022-10-16T15:38:30;6.38;;;3.08;;
35602;SDS011;21725;50.836;4.368;2022-10-16T15:40:59;6.82;;;2.65;;
35602;SDS011;21725;50.836;4.368;2022-10-16T15:43:25;8.38;;;2.88;;
35602;SDS011;21725;50.836;4.368;2022-10-16T15:46:04;8.17;;;3.13;;
35602;SDS011;21725;50.836;4.368;2022-10-16T15:48:41;6.20;;;2.03;;
35602;SDS011;21725;50.836;4.368;2022-10-16T15:51:07;6.03;;;2.75;;
35602;SDS011;21725;50.836;4.368;2022-10-16T15:53:34;6.13;;;2.13;;
35602;SDS011;21725;50.836;4.368;2022-10-16T15:56:08;4.05;;;1.85;;
35602;SDS011;21725;50.836;4.368;2022-10-16T15:58:37;8.02;;;2.70;;
35602;SDS011;21725;50.836;4.368;2022-10-16T16:01:04;7.22;;;2.55;;
35602;SDS011;21725;50.836;4.368;2022-10-16T16:03:33;8.07;;;2.85;;
35602;SDS011;21725;50.836;4.368;2022-10-16T16:06:07;4.28;;;2.20;;
35602;SDS011;21725;50.836;4.368;2022-10-16T16:08:34;6.88;;;2.97;;
35602;SDS011;21725;50.836;4.368;2022-10-16T16:11:02;4.35;;;2.35;;
35602;SDS011;21725;50.836;4.368;2022-10-16T16:13:35;7.50;;;3.38;;
35602;SDS011;21725;50.836;4.368;2022-10-16T16:16:08;6.60;;;2.63;;
35602;SDS011;21725;50.836;4.368;2022-10-16T16:18:52;8.93;;;2.55;;
35602;SDS011;21725;50.836;4.368;2022-10-16T16:21:23;5.63;;;2.40;;
35602;SDS011;21725;50.836;4.368;2022-10-16T16:23:54;6.43;;;2.75;;
35602;SDS011;21725;50.836;4.368;2022-10-16T16:26:24;6.30;;;2.35;;
35602;SDS011;21725;50.836;4.368;2022-10-16T16:28:54;5.07;;;2.38;;
35602;SDS011;21725;50.836;4.368;2022-10-16T16:31:23;6.72;;;3.45;;
35602;SDS011;21725;50.836;4.368;2022-10-16T16:33:51;4.28;;;2.55;;
35602;SDS011;21725;50.836;4.368;2022-10-16T16:36:25;7.60;;;3.45;;
35602;SDS011;21725;50.836;4.368;2022-10-16T16:38:51;5.82;;;3.05;;
35602;SDS011;21725;50.836;4.368;2022-10-16T16:41:19;6.68;;;2.92;;
35602;SDS011;21725;50.836;4.368;2022-10-16T16:43:49;6.15;;;3.13;;
35602;SDS011;21725;50.836;4.368;2022-10-16T16:46:26;7.20;;;3.25;;
35602;SDS011;21725;50.836;4.368;2022-10-16T16:48:52;8.20;;;3.55;;
35602;SDS011;21725;50.836;4.368;2022-10-16T16:51:27;6.13;;;2.47;;
35602;SDS011;21725;50.836;4.368;2022-10-16T16:54:08;5.03;;;3.00;;
35602;SDS011;21725;50.836;4.368;2022-10-16T16:56:42;5.40;;;2.38;;
35602;SDS011;21725;50.836;4.368;2022-10-16T16:59:23;5.50;;;3.42;;
35602;SDS011;21725;50.836;4.368;2022-10-16T17:01:52;6.75;;;3.53;;
35602;SDS011;21725;50.836;4.368;2022-10-16T17:04:22;12.00;;;5.40;;
35602;SDS011;21725;50.836;4.368;2022-10-16T17:06:52;18.50;;;6.68;;
35602;SDS011;21725;50.836;4.368;2022-10-16T17:09:21;11.45;;;5.18;;
35602;SDS011;21725;50.836;4.368;2022-10-16T17:11:48;11.00;;;4.53;;
35602;SDS011;21725;50.836;4.368;2022-10-16T17:14:14;9.60;;;4.28;;
35602;SDS011;21725;50.836;4.368;2022-10-16T17:16:43;7.93;;;4.40;;
35602;SDS011;21725;50.836;4.368;2022-10-16T17:19:14;10.68;;;4.32;;
35602;SDS011;21725;50.836;4.368;2022-10-16T17:21:42;12.15;;;4.45;;
35602;SDS011;21725;50.836;4.368;2022-10-16T17:24:12;8.18;;;4.35;;
35602;SDS011;21725;50.836;4.368;2022-10-16T17:26:51;8.98;;;4.80;;
35602;SDS011;21725;50.836;4.368;2022-10-16T17:29:24;10.75;;;4.57;;
35602;SDS011;21725;50.836;4.368;2022-10-16T17:32:13;9.95;;;4.82;;
35602;SDS011;21725;50.836;4.368;2022-10-16T17:34:42;10.57;;;5.10;;
35602;SDS011;21725;50.836;4.368;2022-10-16T17:37:13;11.77;;;5.40;;
35602;SDS011;21725;50.836;4.368;2022-10-16T17:39:41;13.53;;;5.07;;
35602;SDS011;21725;50.836;4.368;2022-10-16T17:42:19;9.95;;;4.90;;